Rome, Mississippi
Current Conditions -  °F | °C
As of 8:55 PM on Wednesday 22 Oct 2014 (Local Time) from KRNV Reporting Station
Clear Clear  
Wind Chill: 54°   Ceiling: Unl
Heat Index: 54°   Visibility: 10mi
Dew Point: 48°   Wind: 3mph
Humidity: 80%   Direction: 30°NNE
Pressure: 30.16"   Gusts: NA
Location:  33.96°N, 90.48°W
Report Text: KRNV 230155Z AUTO 03003KT 10SM CLR 12/09 A3016 RMK AO2 T01220089
Loading
Personal Weather Stations






























Interactive Weather Map
Tropical Storm Tracking
New forecast layout! Learn more

10-Day Weather Forecast

Advertisements
Track Severe Weather on mobile